Date,TemperatureHighF,TemperatureAvgF,TemperatureLowF,DewpointHighF,DewpointAvgF,DewpointLowF,HumidityHigh,HumidityAvg,HumidityLow,PressureMaxIn,PressureMinIn,WindSpeedMaxMPH,WindSpeedAvgMPH,GustSpeedMaxMPH,PrecipitationSumIn
2013-5-1,55.9,40.2,33.1,37.6,33.7,29.5,92,79,49,30.58,30.03,20,4,21,0.49
2013-5-2,46.6,40.1,35.8,29.8,27.8,25.3,75,62,47,30.66,30.52,23,8,23,0.00
2013-5-3,37.8,35.0,32.9,32.9,28.7,24.4,88,78,64,30.52,30.26,21,6,22,0.06
2013-5-4,47.8,39.6,33.4,41.5,35.5,29.8,89,85,77,30.28,30.21,17,5,17,0.05
2013-5-5,63.9,49.0,38.8,50.0,41.9,35.4,88,77,59,30.27,30.16,13,3,13,0.00
2013-5-6,75.7,59.9,41.9,51.4,47.0,38.8,89,66,39,30.20,30.07,11,1,11,0.00
2013-5-7,79.9,64.0,45.0,54.1,48.5,41.9,89,61,35,30.13,30.00,15,2,15,0.00
2013-5-8,75.2,63.0,54.7,55.6,51.6,46.9,88,69,42,30.06,29.98,18,1,18,0.23
2013-5-9,60.1,54.4,44.8,55.0,48.1,29.8,89,80,55,30.18,30.00,22,5,24,0.04
2013-5-10,67.6,52.2,37.9,40.3,30.1,25.0,71,46,23,30.20,29.96,14,3,15,0.00
2013-5-11,56.7,47.3,35.8,42.1,27.7,19.9,68,48,32,30.27,29.95,37,11,37,0.06
2013-5-12,57.9,44.2,29.7,26.6,22.9,18.3,78,47,22,30.34,30.18,22,4,22,0.00
2013-5-13,75.4,55.5,32.4,49.8,36.9,25.5,79,53,32,30.20,29.71,26,5,26,0.00
2013-5-14,99.1,73.8,48.4,58.3,47.9,34.3,85,46,17,29.74,29.49,28,6,31,0.00
2013-5-15,79.2,66.4,51.3,51.4,47.1,42.4,74,52,32,29.96,29.73,24,5,24,0.01
2013-5-16,82.6,68.7,46.8,52.3,45.7,36.5,85,48,27,29.97,29.87,16,2,16,0.00
2013-5-17,67.6,58.2,55.2,55.0,51.3,38.8,89,79,35,30.04,29.93,14,2,15,0.72
2013-5-18,80.8,66.6,56.7,66.7,59.5,53.4,90,79,58,30.07,29.81,22,3,22,1.39
2013-5-19,79.7,69.5,64.8,67.8,63.4,61.2,89,81,64,29.83,29.57,26,3,26,0.91
2013-5-20,71.8,65.6,58.6,61.7,59.1,55.0,89,80,64,29.62,29.54,28,5,28,0.51
2013-5-21,63.1,58.0,49.6,58.5,54.2,46.6,90,87,75,29.77,29.55,12,2,13,0.12
2013-5-22,53.8,49.1,45.3,49.6,45.9,42.6,94,88,71,30.07,29.75,18,4,18,0.21
2013-5-23,64.6,53.9,45.0,44.1,37.3,31.3,82,56,31,30.42,30.07,17,4,19,0.00
2013-5-24,68.5,54.2,34.9,52.3,40.9,31.1,88,63,37,30.46,30.22,18,3,18,0.23
2013-5-25,59.7,55.3,52.9,50.2,48.3,43.5,88,78,66,30.33,30.27,22,5,22,0.04
2013-5-26,56.8,54.3,51.6,49.6,45.1,41.7,79,71,62,30.29,30.08,23,4,23,0.00
2013-5-27,60.3,56.5,53.4,54.3,51.7,48.9,89,84,75,30.12,29.88,15,3,17,0.05
2013-5-28,60.6,56.5,53.2,56.5,53.1,50.0,92,89,85,29.89,29.78,10,1,11,0.06
2013-5-29,74.7,64.5,53.1,69.3,60.3,49.6,90,86,75,29.88,29.67,15,2,17,0.19
2013-5-30,75.2,68.4,63.3,66.2,62.7,60.1,89,82,67,29.72,29.54,29,7,29,0.34
2013-5-31,77.2,68.0,60.1,61.5,56.3,51.6,89,68,43,29.60,29.55,33,7,36,0.04